sensor_id;sensor_type;location;lat;lon;timestamp;pressure;altitude;pressure_sealevel;temperature;humidity
43115;BME280;28727;50.068;14.452;2024-02-14T00:00:23;99751.19;;;4.56;66.92
43115;BME280;28727;50.068;14.452;2024-02-14T00:02:56;99750.13;;;4.58;67.22
43115;BME280;28727;50.068;14.452;2024-02-14T00:05:28;99750.97;;;4.59;67.14
43115;BME280;28727;50.068;14.452;2024-02-14T00:08:03;99750.63;;;4.52;67.09
43115;BME280;28727;50.068;14.452;2024-02-14T00:10:35;99762.25;;;4.48;67.29
43115;BME280;28727;50.068;14.452;2024-02-14T00:13:07;99760.00;;;4.43;67.73
43115;BME280;28727;50.068;14.452;2024-02-14T00:15:40;99758.31;;;4.42;67.89
43115;BME280;28727;50.068;14.452;2024-02-14T00:18:14;99760.25;;;4.40;68.07
43115;BME280;28727;50.068;14.452;2024-02-14T00:20:52;99768.94;;;4.41;68.19
43115;BME280;28727;50.068;14.452;2024-02-14T00:23:23;99762.03;;;4.40;68.38
43115;BME280;28727;50.068;14.452;2024-02-14T00:25:58;99763.09;;;4.37;68.43
43115;BME280;28727;50.068;14.452;2024-02-14T00:28:33;99759.63;;;4.37;68.57
43115;BME280;28727;50.068;14.452;2024-02-14T00:31:05;99762.25;;;4.37;68.49
43115;BME280;28727;50.068;14.452;2024-02-14T00:33:41;99762.13;;;4.38;68.16
43115;BME280;28727;50.068;14.452;2024-02-14T00:36:15;99765.22;;;4.32;68.74
43115;BME280;28727;50.068;14.452;2024-02-14T00:38:47;99766.06;;;4.33;69.13
43115;BME280;28727;50.068;14.452;2024-02-14T00:41:19;99767.63;;;4.35;68.79
43115;BME280;28727;50.068;14.452;2024-02-14T00:43:58;99763.34;;;4.34;68.92
43115;BME280;28727;50.068;14.452;2024-02-14T00:46:34;99764.03;;;4.36;68.83
43115;BME280;28727;50.068;14.452;2024-02-14T00:49:05;99769.25;;;4.36;68.82
43115;BME280;28727;50.068;14.452;2024-02-14T00:51:38;99775.09;;;4.40;68.94
43115;BME280;28727;50.068;14.452;2024-02-14T00:54:13;99775.09;;;4.40;68.78
43115;BME280;28727;50.068;14.452;2024-02-14T00:56:45;99778.41;;;4.42;68.44
43115;BME280;28727;50.068;14.452;2024-02-14T00:59:16;99780.09;;;4.43;68.65
43115;BME280;28727;50.068;14.452;2024-02-14T01:01:48;99776.63;;;4.42;68.72
43115;BME280;28727;50.068;14.452;2024-02-14T01:04:26;99779.13;;;4.44;68.19
43115;BME280;28727;50.068;14.452;2024-02-14T01:06:57;99772.97;;;4.45;68.19
43115;BME280;28727;50.068;14.452;2024-02-14T01:09:54;99777.13;;;4.47;68.35
43115;BME280;28727;50.068;14.452;2024-02-14T01:12:32;99769.28;;;4.47;68.03
43115;BME280;28727;50.068;14.452;2024-02-14T01:15:06;99761.44;;;4.47;67.96
43115;BME280;28727;50.068;14.452;2024-02-14T01:17:39;99764.16;;;4.46;67.82
43115;BME280;28727;50.068;14.452;2024-02-14T01:20:11;99757.38;;;4.43;67.79
43115;BME280;28727;50.068;14.452;2024-02-14T01:22:44;99763.56;;;4.42;68.04
43115;BME280;28727;50.068;14.452;2024-02-14T01:25:17;99764.66;;;4.40;68.44
43115;BME280;28727;50.068;14.452;2024-02-14T01:27:49;99760.25;;;4.40;68.32
43115;BME280;28727;50.068;14.452;2024-02-14T01:30:24;99756.91;;;4.38;68.42
43115;BME280;28727;50.068;14.452;2024-02-14T01:32:56;99750.47;;;4.42;68.06
43115;BME280;28727;50.068;14.452;2024-02-14T01:35:31;99747.75;;;4.44;67.82
43115;BME280;28727;50.068;14.452;2024-02-14T01:38:04;99755.38;;;4.47;68.22
43115;BME280;28727;50.068;14.452;2024-02-14T01:40:37;99754.41;;;4.48;68.25
43115;BME280;28727;50.068;14.452;2024-02-14T01:43:10;99757.75;;;4.50;68.09
43115;BME280;28727;50.068;14.452;2024-02-14T01:45:42;99753.34;;;4.50;67.80
43115;BME280;28727;50.068;14.452;2024-02-14T01:48:19;99752.88;;;4.45;68.14
43115;BME280;28727;50.068;14.452;2024-02-14T01:50:58;99749.06;;;4.38;68.16
43115;BME280;28727;50.068;14.452;2024-02-14T01:53:31;99739.44;;;4.39;68.21
43115;BME280;28727;50.068;14.452;2024-02-14T01:56:04;99746.34;;;4.40;68.79
43115;BME280;28727;50.068;14.452;2024-02-14T01:58:41;99742.78;;;4.41;68.91
43115;BME280;28727;50.068;14.452;2024-02-14T02:01:14;99736.34;;;4.45;68.27
43115;BME280;28727;50.068;14.452;2024-02-14T02:03:46;99736.34;;;4.45;68.65
43115;BME280;28727;50.068;14.452;2024-02-14T02:06:23;99732.66;;;4.47;68.05
43115;BME280;28727;50.068;14.452;2024-02-14T02:08:59;99737.91;;;4.47;68.72
43115;BME280;28727;50.068;14.452;2024-02-14T02:11:50;99748.22;;;4.49;69.16
43115;BME280;28727;50.068;14.452;2024-02-14T02:14:26;99736.69;;;4.51;69.13
43115;BME280;28727;50.068;14.452;2024-02-14T02:16:59;99732.78;;;4.57;68.78
43115;BME280;28727;50.068;14.452;2024-02-14T02:19:31;99730.97;;;4.58;68.85
43115;BME280;28727;50.068;14.452;2024-02-14T02:22:04;99735.13;;;4.60;68.40
43115;BME280;28727;50.068;14.452;2024-02-14T02:24:44;99736.09;;;4.59;68.92
43115;BME280;28727;50.068;14.452;2024-02-14T02:27:18;99739.41;;;4.61;68.55
43115;BME280;28727;50.068;14.452;2024-02-14T02:29:50;99734.19;;;4.50;68.84
43115;BME280;28727;50.068;14.452;2024-02-14T02:32:25;99737.75;;;4.49;69.13
43115;BME280;28727;50.068;14.452;2024-02-14T02:34:59;99739.19;;;4.53;68.91
43115;BME280;28727;50.068;14.452;2024-02-14T02:37:31;99740.84;;;4.43;69.07
43115;BME280;28727;50.068;14.452;2024-02-14T02:40:09;99734.22;;;4.39;69.49
43115;BME280;28727;50.068;14.452;2024-02-14T02:42:45;99729.91;;;4.49;69.31
43115;BME280;28727;50.068;14.452;2024-02-14T02:45:17;99729.78;;;4.62;69.25
43115;BME280;28727;50.068;14.452;2024-02-14T02:47:50;99728.00;;;4.62;68.94
43115;BME280;28727;50.068;14.452;2024-02-14T02:50:23;99731.78;;;4.69;68.72
43115;BME280;28727;50.068;14.452;2024-02-14T02:52:59;99729.06;;;4.71;68.22
43115;BME280;28727;50.068;14.452;2024-02-14T02:55:31;99735.72;;;4.75;68.78
43115;BME280;28727;50.068;14.452;2024-02-14T02:58:05;99729.16;;;4.80;68.11
43115;BME280;28727;50.068;14.452;2024-02-14T03:01:02;99743.28;;;4.78;68.35
43115;BME280;28727;50.068;14.452;2024-02-14T03:03:35;99751.03;;;4.79;68.19
43115;BME280;28727;50.068;14.452;2024-02-14T03:06:07;99737.22;;;4.77;68.21
43115;BME280;28727;50.068;14.452;2024-02-14T03:08:42;99734.50;;;4.79;68.57
43115;BME280;28727;50.068;14.452;2024-02-14T03:11:15;99740.44;;;4.81;67.99
43115;BME280;28727;50.068;14.452;2024-02-14T03:13:47;99754.25;;;4.83;68.03
43115;BME280;28727;50.068;14.452;2024-02-14T03:16:21;99747.22;;;4.83;67.79
43115;BME280;28727;50.068;14.452;2024-02-14T03:18:53;99741.28;;;4.81;67.64
43115;BME280;28727;50.068;14.452;2024-02-14T03:21:32;99734.50;;;4.79;67.69
43115;BME280;28727;50.068;14.452;2024-02-14T03:24:07;99742.34;;;4.79;67.68
43115;BME280;28727;50.068;14.452;2024-02-14T03:26:41;99743.19;;;4.79;67.83
43115;BME280;28727;50.068;14.452;2024-02-14T03:29:13;99740.34;;;4.82;67.70
43115;BME280;28727;50.068;14.452;2024-02-14T03:31:48;99740.44;;;4.81;67.53
43115;BME280;28727;50.068;14.452;2024-02-14T03:34:20;99738.91;;;4.78;67.68
43115;BME280;28727;50.068;14.452;2024-02-14T03:37:17;99741.50;;;4.78;67.86
43115;BME280;28727;50.068;14.452;2024-02-14T03:39:51;99738.91;;;4.78;67.61
43115;BME280;28727;50.068;14.452;2024-02-14T03:42:25;99735.44;;;4.78;68.06
43115;BME280;28727;50.068;14.452;2024-02-14T03:44:57;99738.91;;;4.78;67.69
43115;BME280;28727;50.068;14.452;2024-02-14T03:47:35;99737.94;;;4.79;68.18
43115;BME280;28727;50.068;14.452;2024-02-14T03:50:12;99737.84;;;4.81;68.05
43115;BME280;28727;50.068;14.452;2024-02-14T03:52:43;99734.28;;;4.82;68.15
43115;BME280;28727;50.068;14.452;2024-02-14T03:55:15;99737.56;;;4.84;68.37
43115;BME280;28727;50.068;14.452;2024-02-14T03:57:49;99735.69;;;4.86;67.81
43115;BME280;28727;50.068;14.452;2024-02-14T04:00:22;99733.66;;;4.78;68.19
43115;BME280;28727;50.068;14.452;2024-02-14T04:02:55;99731.41;;;4.74;68.42
43115;BME280;28727;50.068;14.452;2024-02-14T04:05:31;99733.09;;;4.75;68.32
43115;BME280;28727;50.068;14.452;2024-02-14T04:08:03;99737.22;;;4.77;68.22
43115;BME280;28727;50.068;14.452;2024-02-14T04:10:36;99732.47;;;4.82;68.04
43115;BME280;28727;50.068;14.452;2024-02-14T04:13:09;99724.63;;;4.82;68.26
43115;BME280;28727;50.068;14.452;2024-02-14T04:15:45;99728.88;;;4.83;68.17
43115;BME280;28727;50.068;14.452;2024-02-14T04:18:17;99728.09;;;4.83;68.24
43115;BME280;28727;50.068;14.452;2024-02-14T04:20:53;99723.91;;;4.80;68.71
43115;BME280;28727;50.068;14.452;2024-02-14T04:23:25;99729.16;;;4.80;68.51
43115;BME280;28727;50.068;14.452;2024-02-14T04:26:04;99715.22;;;4.80;68.63
43115;BME280;28727;50.068;14.452;2024-02-14T04:28:39;99719.75;;;4.78;69.11
43115;BME280;28727;50.068;14.452;2024-02-14T04:31:12;99724.03;;;4.79;69.21
43115;BME280;28727;50.068;14.452;2024-02-14T04:33:44;99730.09;;;4.79;68.92
43115;BME280;28727;50.068;14.452;2024-02-14T04:36:24;99725.69;;;4.80;69.10
43115;BME280;28727;50.068;14.452;2024-02-14T04:38:57;99732.28;;;4.63;69.42
43115;BME280;28727;50.068;14.452;2024-02-14T04:41:31;99720.63;;;4.56;69.66
43115;BME280;28727;50.068;14.452;2024-02-14T04:44:04;99723.16;;;4.46;70.03
43115;BME280;28727;50.068;14.452;2024-02-14T04:46:37;99713.41;;;4.37;71.22
43115;BME280;28727;50.068;14.452;2024-02-14T04:49:19;99715.91;;;4.39;70.87
43115;BME280;28727;50.068;14.452;2024-02-14T04:51:55;99713.03;;;4.42;70.63
43115;BME280;28727;50.068;14.452;2024-02-14T04:54:32;99717.78;;;4.37;70.43
43115;BME280;28727;50.068;14.452;2024-02-14T04:57:04;99709.84;;;4.27;70.62
43115;BME280;28727;50.068;14.452;2024-02-14T04:59:40;99715.19;;;4.26;70.68
43115;BME280;28727;50.068;14.452;2024-02-14T05:02:19;99720.19;;;4.29;70.91
43115;BME280;28727;50.068;14.452;2024-02-14T05:04:53;99721.97;;;4.28;71.21
43115;BME280;28727;50.068;14.452;2024-02-14T05:07:29;99715.19;;;4.37;71.30
43115;BME280;28727;50.068;14.452;2024-02-14T05:10:01;99717.31;;;4.43;70.75
43115;BME280;28727;50.068;14.452;2024-02-14T05:12:35;99716.47;;;4.42;70.53
43115;BME280;28727;50.068;14.452;2024-02-14T05:15:13;99714.22;;;4.49;70.50
43115;BME280;28727;50.068;14.452;2024-02-14T05:17:45;99719.69;;;4.57;70.22
43115;BME280;28727;50.068;14.452;2024-02-14T05:20:17;99718.38;;;4.63;70.13
43115;BME280;28727;50.068;14.452;2024-02-14T05:22:50;99723.34;;;4.66;70.11
43115;BME280;28727;50.068;14.452;2024-02-14T05:25:25;99729.19;;;4.69;69.85
43115;BME280;28727;50.068;14.452;2024-02-14T05:28:01;99728.81;;;4.74;69.54
43115;BME280;28727;50.068;14.452;2024-02-14T05:30:33;99732.38;;;4.73;69.34
43115;BME280;28727;50.068;14.452;2024-02-14T05:33:07;99729.88;;;4.71;69.41
43115;BME280;28727;50.068;14.452;2024-02-14T05:35:39;99721.56;;;4.66;69.75
43115;BME280;28727;50.068;14.452;2024-02-14T05:38:11;99720.97;;;4.63;69.88
43115;BME280;28727;50.068;14.452;2024-02-14T05:40:46;99720.59;;;4.67;69.65
43115;BME280;28727;50.068;14.452;2024-02-14T05:43:19;99715.03;;;4.61;70.13
43115;BME280;28727;50.068;14.452;2024-02-14T05:45:50;99726.09;;;4.64;69.84
43115;BME280;28727;50.068;14.452;2024-02-14T05:48:22;99719.41;;;4.71;70.06
43115;BME280;28727;50.068;14.452;2024-02-14T05:50:54;99725.13;;;4.76;70.19
43115;BME280;28727;50.068;14.452;2024-02-14T05:53:31;99717.72;;;4.81;70.06
43115;BME280;28727;50.068;14.452;2024-02-14T05:56:05;99720.09;;;4.84;69.92
43115;BME280;28727;50.068;14.452;2024-02-14T05:58:37;99729.38;;;4.88;69.85
43115;BME280;28727;50.068;14.452;2024-02-14T06:01:11;99734.13;;;4.94;69.98
43115;BME280;28727;50.068;14.452;2024-02-14T06:03:43;99729.72;;;4.84;69.77
43115;BME280;28727;50.068;14.452;2024-02-14T06:06:18;99731.88;;;4.79;70.06
43115;BME280;28727;50.068;14.452;2024-02-14T06:08:50;99733.31;;;4.83;69.85
43115;BME280;28727;50.068;14.452;2024-02-14T06:11:25;99732.81;;;4.78;70.13
43115;BME280;28727;50.068;14.452;2024-02-14T06:13:57;99730.94;;;4.80;70.27
43115;BME280;28727;50.068;14.452;2024-02-14T06:16:29;99737.34;;;4.87;69.84
43115;BME280;28727;50.068;14.452;2024-02-14T06:19:04;99732.09;;;4.87;69.83
43115;BME280;28727;50.068;14.452;2024-02-14T06:21:39;99734.63;;;4.88;69.62
43115;BME280;28727;50.068;14.452;2024-02-14T06:24:13;99731.00;;;4.89;69.17
43115;BME280;28727;50.068;14.452;2024-02-14T06:26:46;99736.25;;;4.89;69.80
43115;BME280;28727;50.068;14.452;2024-02-14T06:29:18;99733.41;;;4.92;69.89
43115;BME280;28727;50.068;14.452;2024-02-14T06:31:49;99739.94;;;4.98;69.08
43115;BME280;28727;50.068;14.452;2024-02-14T06:34:25;99739.66;;;5.01;68.81
43115;BME280;28727;50.068;14.452;2024-02-14T06:36:59;99740.16;;;4.95;69.29
43115;BME280;28727;50.068;14.452;2024-02-14T06:39:30;99735.16;;;5.03;68.79
43115;BME280;28727;50.068;14.452;2024-02-14T06:42:03;99735.88;;;5.05;68.83
43115;BME280;28727;50.068;14.452;2024-02-14T06:44:36;99736.31;;;5.10;68.75
43115;BME280;28727;50.068;14.452;2024-02-14T06:47:13;99738.94;;;5.10;68.80
43115;BME280;28727;50.068;14.452;2024-02-14T06:49:45;99735.94;;;5.15;68.96
43115;BME280;28727;50.068;14.452;2024-02-14T06:52:17;99741.13;;;5.26;68.44
43115;BME280;28727;50.068;14.452;2024-02-14T06:54:51;99748.38;;;5.33;68.55
43115;BME280;28727;50.068;14.452;2024-02-14T06:57:27;99745.25;;;5.40;68.31
43115;BME280;28727;50.068;14.452;2024-02-14T06:59:59;99749.88;;;5.47;68.04
43115;BME280;28727;50.068;14.452;2024-02-14T07:02:31;99749.91;;;5.57;68.10
43115;BME280;28727;50.068;14.452;2024-02-14T07:05:03;99747.34;;;5.66;67.75
43115;BME280;28727;50.068;14.452;2024-02-14T07:07:36;99743.03;;;5.76;67.03
43115;BME280;28727;50.068;14.452;2024-02-14T07:10:13;99742.72;;;5.91;66.71
43115;BME280;28727;50.068;14.452;2024-02-14T07:12:47;99746.53;;;6.07;66.62
43115;BME280;28727;50.068;14.452;2024-02-14T07:15:19;99741.59;;;6.54;65.88
43115;BME280;28727;50.068;14.452;2024-02-14T07:17:56;99746.53;;;7.74;64.75
43115;BME280;28727;50.068;14.452;2024-02-14T07:20:33;99742.00;;;9.04;61.80
43115;BME280;28727;50.068;14.452;2024-02-14T07:23:05;99735.44;;;9.44;59.50
43115;BME280;28727;50.068;14.452;2024-02-14T07:25:39;99737.13;;;9.27;57.75
43115;BME280;28727;50.068;14.452;2024-02-14T07:28:11;99739.38;;;9.04;57.18
43115;BME280;28727;50.068;14.452;2024-02-14T07:30:45;99742.25;;;8.84;57.58
43115;BME280;28727;50.068;14.452;2024-02-14T07:33:17;99749.47;;;8.64;58.10
43115;BME280;28727;50.068;14.452;2024-02-14T07:35:51;99749.03;;;8.32;58.96
43115;BME280;28727;50.068;14.452;2024-02-14T07:38:23;99748.69;;;8.07;59.21
43115;BME280;28727;50.068;14.452;2024-02-14T07:40:59;99751.47;;;7.96;59.36
43115;BME280;28727;50.068;14.452;2024-02-14T07:43:31;99753.03;;;7.89;59.45
43115;BME280;28727;50.068;14.452;2024-02-14T07:46:07;99755.25;;;7.84;59.82
43115;BME280;28727;50.068;14.452;2024-02-14T07:48:39;99753.75;;;7.62;59.66
43115;BME280;28727;50.068;14.452;2024-02-14T07:51:16;99759.56;;;7.37;60.97
43115;BME280;28727;50.068;14.452;2024-02-14T07:53:52;99756.53;;;7.22;60.96
43115;BME280;28727;50.068;14.452;2024-02-14T07:56:24;99755.16;;;7.28;60.93
43115;BME280;28727;50.068;14.452;2024-02-14T07:58:55;99752.78;;;7.25;61.05
43115;BME280;28727;50.068;14.452;2024-02-14T08:01:29;99756.94;;;7.08;61.07
43115;BME280;28727;50.068;14.452;2024-02-14T08:04:01;99755.97;;;6.99;61.78
43115;BME280;28727;50.068;14.452;2024-02-14T08:06:33;99744.34;;;7.02;61.36
43115;BME280;28727;50.068;14.452;2024-02-14T08:09:06;99744.38;;;7.12;61.60
43115;BME280;28727;50.068;14.452;2024-02-14T08:11:41;99750.03;;;7.17;61.85
43115;BME280;28727;50.068;14.452;2024-02-14T08:14:13;99747.53;;;7.63;60.48
43115;BME280;28727;50.068;14.452;2024-02-14T08:16:45;99740.56;;;7.91;60.22
43115;BME280;28727;50.068;14.452;2024-02-14T08:19:17;99732.22;;;8.05;60.11
43115;BME280;28727;50.068;14.452;2024-02-14T08:21:50;99735.69;;;8.06;59.21
43115;BME280;28727;50.068;14.452;2024-02-14T08:24:28;99739.72;;;8.00;58.70
43115;BME280;28727;50.068;14.452;2024-02-14T08:27:00;99742.63;;;7.97;59.72
43115;BME280;28727;50.068;14.452;2024-02-14T08:29:32;99742.53;;;7.89;59.68
43115;BME280;28727;50.068;14.452;2024-02-14T08:32:05;99734.50;;;7.81;59.34
43115;BME280;28727;50.068;14.452;2024-02-14T08:34:39;99731.59;;;7.74;59.69
43115;BME280;28727;50.068;14.452;2024-02-14T08:37:11;99734.38;;;7.73;59.72
43115;BME280;28727;50.068;14.452;2024-02-14T08:39:43;99729.38;;;7.79;60.33
43115;BME280;28727;50.068;14.452;2024-02-14T08:42:16;99733.13;;;7.67;60.01
43115;BME280;28727;50.068;14.452;2024-02-14T08:44:51;99729.56;;;7.59;60.63
43115;BME280;28727;50.068;14.452;2024-02-14T08:47:23;99733.25;;;7.66;60.71
43115;BME280;28727;50.068;14.452;2024-02-14T08:49:58;99729.56;;;7.59;60.37
43115;BME280;28727;50.068;14.452;2024-02-14T08:52:31;99720.41;;;7.63;61.21
43115;BME280;28727;50.068;14.452;2024-02-14T08:55:05;99714.59;;;7.69;60.86
43115;BME280;28727;50.068;14.452;2024-02-14T08:57:41;99714.72;;;7.77;61.78
43115;BME280;28727;50.068;14.452;2024-02-14T09:00:13;99718.59;;;7.73;61.25
43115;BME280;28727;50.068;14.452;2024-02-14T09:02:50;99717.19;;;7.78;60.93
43115;BME280;28727;50.068;14.452;2024-02-14T09:05:26;99712.06;;;7.87;60.87
43115;BME280;28727;50.068;14.452;2024-02-14T09:08:01;99716.06;;;7.91;60.25
43115;BME280;28727;50.068;14.452;2024-02-14T09:10:33;99716.78;;;7.83;59.88
43115;BME280;28727;50.068;14.452;2024-02-14T09:13:09;99714.28;;;7.81;60.27
43115;BME280;28727;50.068;14.452;2024-02-14T09:15:41;99715.38;;;7.89;60.08
43115;BME280;28727;50.068;14.452;2024-02-14T09:18:13;99713.28;;;7.92;60.38
43115;BME280;28727;50.068;14.452;2024-02-14T09:20:47;99720.59;;;7.98;60.49
43115;BME280;28727;50.068;14.452;2024-02-14T09:23:19;99709.25;;;7.98;59.93
43115;BME280;28727;50.068;14.452;2024-02-14T09:25:52;99712.00;;;8.06;60.44
43115;BME280;28727;50.068;14.452;2024-02-14T09:28:26;99715.16;;;8.09;60.39
43115;BME280;28727;50.068;14.452;2024-02-14T09:31:04;99720.16;;;8.12;60.35
43115;BME280;28727;50.068;14.452;2024-02-14T09:33:42;99714.16;;;8.20;59.86
43115;BME280;28727;50.068;14.452;2024-02-14T09:36:17;99712.22;;;8.22;59.18
43115;BME280;28727;50.068;14.452;2024-02-14T09:38:51;99710.94;;;8.26;59.55
43115;BME280;28727;50.068;14.452;2024-02-14T09:41:40;99711.91;;;8.25;59.50
43115;BME280;28727;50.068;14.452;2024-02-14T09:44:16;99704.69;;;8.37;59.33
43115;BME280;28727;50.068;14.452;2024-02-14T09:46:52;99704.31;;;8.59;59.53
43115;BME280;28727;50.068;14.452;2024-02-14T09:49:25;99709.75;;;8.75;57.91
43115;BME280;28727;50.068;14.452;2024-02-14T09:52:03;99702.41;;;8.96;57.65
43115;BME280;28727;50.068;14.452;2024-02-14T09:54:36;99701.19;;;9.26;57.18
43115;BME280;28727;50.068;14.452;2024-02-14T09:57:12;99703.16;;;9.42;56.16
43115;BME280;28727;50.068;14.452;2024-02-14T09:59:45;99708.63;;;9.49;56.01
43115;BME280;28727;50.068;14.452;2024-02-14T10:02:18;99701.41;;;9.51;56.00
43115;BME280;28727;50.068;14.452;2024-02-14T10:04:53;99694.84;;;9.80;55.61
43115;BME280;28727;50.068;14.452;2024-02-14T10:07:25;99698.97;;;10.09;54.42
43115;BME280;28727;50.068;14.452;2024-02-14T10:10:06;99694.72;;;10.50;53.75
43115;BME280;28727;50.068;14.452;2024-02-14T10:12:44;99703.41;;;10.76;52.10
43115;BME280;28727;50.068;14.452;2024-02-14T10:15:17;99701.31;;;11.20;51.36
43115;BME280;28727;50.068;14.452;2024-02-14T10:17:49;99691.41;;;11.55;50.19
43115;BME280;28727;50.068;14.452;2024-02-14T10:20:21;99697.69;;;11.45;50.68
43115;BME280;28727;50.068;14.452;2024-02-14T10:23:03;99697.22;;;11.58;50.25
43115;BME280;28727;50.068;14.452;2024-02-14T10:25:37;99703.66;;;11.64;49.77
43115;BME280;28727;50.068;14.452;2024-02-14T10:28:11;99695.88;;;11.78;49.92
43115;BME280;28727;50.068;14.452;2024-02-14T10:30:45;99689.06;;;11.92;49.55
43115;BME280;28727;50.068;14.452;2024-02-14T10:33:20;99690.72;;;11.85;49.39
43115;BME280;28727;50.068;14.452;2024-02-14T10:35:59;99694.88;;;11.87;49.15
43115;BME280;28727;50.068;14.452;2024-02-14T10:38:34;99690.25;;;11.81;49.75
43115;BME280;28727;50.068;14.452;2024-02-14T10:41:07;99688.25;;;11.92;49.85
43115;BME280;28727;50.068;14.452;2024-02-14T10:43:42;99684.91;;;11.98;48.69
43115;BME280;28727;50.068;14.452;2024-02-14T10:46:22;99686.72;;;12.05;49.15
43115;BME280;28727;50.068;14.452;2024-02-14T10:49:03;99682.72;;;12.09;48.52
43115;BME280;28727;50.068;14.452;2024-02-14T10:51:45;99681.66;;;11.87;48.74
43115;BME280;28727;50.068;14.452;2024-02-14T10:54:21;99681.16;;;11.60;49.68
43115;BME280;28727;50.068;14.452;2024-02-14T10:57:05;99670.06;;;11.64;50.29
43115;BME280;28727;50.068;14.452;2024-02-14T10:59:48;99677.84;;;11.74;50.01
43115;BME280;28727;50.068;14.452;2024-02-14T11:02:24;99681.47;;;11.73;49.64
43115;BME280;28727;50.068;14.452;2024-02-14T11:04:59;99669.56;;;11.85;50.04
43115;BME280;28727;50.068;14.452;2024-02-14T11:07:32;99670.91;;;11.81;50.36
43115;BME280;28727;50.068;14.452;2024-02-14T11:10:05;99660.41;;;12.12;50.43
43115;BME280;28727;50.068;14.452;2024-02-14T11:12:40;99666.72;;;12.42;50.07
43115;BME280;28727;50.068;14.452;2024-02-14T11:15:22;99657.28;;;12.78;49.04
43115;BME280;28727;50.068;14.452;2024-02-14T11:18:05;99658.91;;;13.02;48.19
43115;BME280;28727;50.068;14.452;2024-02-14T11:20:39;99650.50;;;12.98;48.92
43115;BME280;28727;50.068;14.452;2024-02-14T11:23:21;99644.06;;;12.93;48.91
43115;BME280;28727;50.068;14.452;2024-02-14T11:26:03;99644.09;;;12.85;48.27
43115;BME280;28727;50.068;14.452;2024-02-14T11:28:37;99646.22;;;12.66;48.46
43115;BME280;28727;50.068;14.452;2024-02-14T11:31:11;99647.44;;;12.56;48.65
43115;BME280;28727;50.068;14.452;2024-02-14T11:33:47;99647.03;;;12.67;49.13
43115;BME280;28727;50.068;14.452;2024-02-14T11:36:23;99639.22;;;12.73;48.79
43115;BME280;28727;50.068;14.452;2024-02-14T11:38:55;99625.25;;;12.57;48.90
43115;BME280;28727;50.068;14.452;2024-02-14T11:41:29;99635.56;;;12.44;48.57
43115;BME280;28727;50.068;14.452;2024-02-14T11:44:06;99631.94;;;12.45;48.76
43115;BME280;28727;50.068;14.452;2024-02-14T11:46:38;99627.94;;;12.49;49.07
43115;BME280;28727;50.068;14.452;2024-02-14T11:49:10;99631.09;;;12.44;49.41
43115;BME280;28727;50.068;14.452;2024-02-14T11:51:44;99624.97;;;12.44;49.75
43115;BME280;28727;50.068;14.452;2024-02-14T11:54:18;99629.44;;;12.43;49.82
43115;BME280;28727;50.068;14.452;2024-02-14T11:56:52;99625.63;;;12.46;49.48
43115;BME280;28727;50.068;14.452;2024-02-14T11:59:24;99618.53;;;12.46;49.65
43115;BME280;28727;50.068;14.452;2024-02-14T12:01:59;99614.03;;;12.47;49.87
43115;BME280;28727;50.068;14.452;2024-02-14T12:04:31;99618.53;;;12.46;50.29
43115;BME280;28727;50.068;14.452;2024-02-14T12:07:05;99611.97;;;12.34;50.23
43115;BME280;28727;50.068;14.452;2024-02-14T12:09:37;99601.81;;;12.38;50.52
43115;BME280;28727;50.068;14.452;2024-02-14T12:12:09;99590.72;;;12.42;50.59
43115;BME280;28727;50.068;14.452;2024-02-14T12:14:43;99583.66;;;12.57;50.41
43115;BME280;28727;50.068;14.452;2024-02-14T12:17:16;99584.50;;;12.81;49.64
43115;BME280;28727;50.068;14.452;2024-02-14T12:19:53;99576.53;;;13.03;49.65
43115;BME280;28727;50.068;14.452;2024-02-14T12:22:25;99581.09;;;13.18;49.17
43115;BME280;28727;50.068;14.452;2024-02-14T12:24:59;99584.66;;;13.25;49.31
43115;BME280;28727;50.068;14.452;2024-02-14T12:27:37;99582.53;;;13.20;49.18
43115;BME280;28727;50.068;14.452;2024-02-14T12:30:11;99591.81;;;13.24;49.65
43115;BME280;28727;50.068;14.452;2024-02-14T12:32:43;99588.22;;;13.32;49.64
43115;BME280;28727;50.068;14.452;2024-02-14T12:35:19;99600.78;;;13.38;49.31
43115;BME280;28727;50.068;14.452;2024-02-14T12:37:51;99606.75;;;13.40;48.97
43115;BME280;28727;50.068;14.452;2024-02-14T12:40:26;99608.44;;;13.33;49.23
43115;BME280;28727;50.068;14.452;2024-02-14T12:43:00;99609.81;;;13.29;49.30
43115;BME280;28727;50.068;14.452;2024-02-14T12:45:33;99604.97;;;13.18;49.44
43115;BME280;28727;50.068;14.452;2024-02-14T12:48:09;99611.81;;;13.12;49.69
43115;BME280;28727;50.068;14.452;2024-02-14T12:50:41;99604.69;;;13.04;50.17
43115;BME280;28727;50.068;14.452;2024-02-14T12:53:23;99598.88;;;12.86;50.93
43115;BME280;28727;50.068;14.452;2024-02-14T12:55:55;99599.56;;;12.80;50.56
43115;BME280;28727;50.068;14.452;2024-02-14T12:58:29;99583.66;;;12.80;51.30
43115;BME280;28727;50.068;14.452;2024-02-14T13:01:02;99582.69;;;12.81;51.18
43115;BME280;28727;50.068;14.452;2024-02-14T13:03:39;99589.13;;;12.79;50.96
43115;BME280;28727;50.068;14.452;2024-02-14T13:06:11;99595.81;;;12.75;51.45
43115;BME280;28727;50.068;14.452;2024-02-14T13:08:47;99590.69;;;12.73;51.59
43115;BME280;28727;50.068;14.452;2024-02-14T13:11:23;99593.53;;;12.71;51.48
43115;BME280;28727;50.068;14.452;2024-02-14T13:13:54;99594.44;;;12.79;51.77
43115;BME280;28727;50.068;14.452;2024-02-14T13:16:27;99590.63;;;12.81;51.33
43115;BME280;28727;50.068;14.452;2024-02-14T13:19:03;99588.16;;;12.80;51.90
43115;BME280;28727;50.068;14.452;2024-02-14T13:21:37;99581.97;;;12.87;51.56
43115;BME280;28727;50.068;14.452;2024-02-14T13:24:11;99580.03;;;12.81;51.73
43115;BME280;28727;50.068;14.452;2024-02-14T13:26:47;99582.84;;;12.80;51.77
43115;BME280;28727;50.068;14.452;2024-02-14T13:29:19;99578.03;;;12.83;51.66
43115;BME280;28727;50.068;14.452;2024-02-14T13:31:51;99588.97;;;12.80;51.65
43115;BME280;28727;50.068;14.452;2024-02-14T13:34:23;99580.91;;;12.73;51.84